Time;durP1;ratioP1;P1;durP2;ratioP2;P2;SDS_P1;SDS_P2;PMS_P1;PMS_P2;Temp;Humidity;BMP_temperature;BMP_pressure;BME280_temperature;BME280_humidity;BME280_pressure;Samples;Min_cycle;Max_cycle;Signal;HPM_P1;HPM_P2
2021/04/09 00:01:26;;;;;;;7.93;4.67;;;2.30;95.90;;;;;;5090508;28;20232;-60
2021/04/09 00:03:53;;;;;;;7.73;4.67;;;2.40;95.50;;;;;;5090950;28;20220;-59
2021/04/09 00:06:20;;;;;;;7.77;4.30;;;2.50;95.30;;;;;;5090973;28;20212;-60
2021/04/09 00:08:47;;;;;;;7.47;4.40;;;2.70;94.80;;;;;;5090617;28;20215;-62
2021/04/09 00:11:13;;;;;;;5.90;4.17;;;2.80;94.60;;;;;;5090612;28;20272;-62
2021/04/09 00:13:39;;;;;;;8.57;4.60;;;2.90;94.30;;;;;;5091533;28;20200;-60
2021/04/09 00:16:06;;;;;;;7.30;4.30;;;2.90;94.00;;;;;;5094465;28;20216;-59
2021/04/09 00:18:32;;;;;;;7.50;4.27;;;3.00;93.90;;;;;;5094236;28;20204;-62
2021/04/09 00:20:58;;;;;;;7.03;4.50;;;3.00;93.80;;;;;;5094495;28;20232;-60
2021/04/09 00:23:25;;;;;;;7.43;4.37;;;3.00;93.60;;;;;;5094327;28;20231;-60
2021/04/09 00:25:52;;;;;;;7.00;4.37;;;3.00;93.60;;;;;;5094704;28;20204;-59
2021/04/09 00:28:18;;;;;;;6.13;4.07;;;3.10;93.60;;;;;;5094157;28;20621;-59
2021/04/09 00:30:45;;;;;;;6.67;4.23;;;3.10;93.50;;;;;;5094326;28;20208;-61
2021/04/09 00:33:11;;;;;;;6.37;4.23;;;3.20;93.30;;;;;;5094133;28;20242;-62
2021/04/09 00:35:37;;;;;;;7.53;4.60;;;3.20;93.20;;;;;;5094104;28;20565;-62
2021/04/09 00:38:03;;;;;;;7.30;4.40;;;3.20;93.20;;;;;;5093884;28;20377;-60
2021/04/09 00:40:30;;;;;;;10.97;4.57;;;3.30;93.00;;;;;;5094139;28;20215;-60
2021/04/09 00:42:57;;;;;;;9.77;4.60;;;3.30;92.90;;;;;;5093919;28;20216;-62
2021/04/09 00:45:23;;;;;;;7.13;4.70;;;3.10;93.10;;;;;;5093493;28;20284;-61
2021/04/09 00:47:49;;;;;;;6.70;4.60;;;3.20;93.10;;;;;;5093723;28;20208;-60
2021/04/09 00:50:16;;;;;;;6.57;4.10;;;3.10;93.00;;;;;;5093874;28;20209;-61
2021/04/09 00:52:44;;;;;;;9.90;4.80;;;3.10;93.10;;;;;;5093752;28;20230;-62
2021/04/09 00:55:13;;;;;;;7.80;4.57;;;3.10;93.10;;;;;;5093676;28;20211;-60
2021/04/09 00:57:42;;;;;;;7.13;4.43;;;3.20;93.00;;;;;;5093463;28;20204;-61
2021/04/09 01:00:11;;;;;;;6.23;4.20;;;3.10;93.00;;;;;;5093547;28;20668;-62
2021/04/09 01:02:37;;;;;;;7.07;4.10;;;3.00;93.10;;;;;;5093649;28;20228;-61
2021/04/09 01:05:05;;;;;;;9.97;4.57;;;2.90;93.40;;;;;;5093559;28;20220;-60
2021/04/09 01:07:32;;;;;;;8.53;4.77;;;2.80;93.70;;;;;;5093410;28;20581;-63
2021/04/09 01:09:58;;;;;;;7.57;4.30;;;2.70;93.90;;;;;;5093130;28;20668;-60
2021/04/09 01:12:24;;;;;;;10.00;4.90;;;2.60;94.00;;;;;;5093392;28;20707;-59
2021/04/09 01:14:52;;;;;;;6.50;4.50;;;2.60;94.10;;;;;;5093023;28;20230;-60
2021/04/09 01:17:24;;;;;;;7.43;4.83;;;2.50;94.20;;;;;;5093353;28;20204;-61
2021/04/09 01:20:19;;;;;;;6.57;4.33;;;2.40;94.40;;;;;;5093265;28;20204;-60
2021/04/09 01:22:51;;;;;;;8.23;4.67;;;2.40;94.50;;;;;;5093552;28;20306;-62
2021/04/09 01:25:34;;;;;;;7.33;4.47;;;2.40;94.40;;;;;;5093035;28;20208;-61
2021/04/09 01:28:08;;;;;;;7.93;4.60;;;2.50;94.40;;;;;;5093321;28;20340;-60
2021/04/09 01:30:54;;;;;;;6.57;4.30;;;2.50;94.60;;;;;;5093209;28;20228;-59
2021/04/09 01:33:24;;;;;;;7.17;4.33;;;2.60;94.20;;;;;;5092836;28;20200;-61
2021/04/09 01:35:55;;;;;;;7.47;4.60;;;2.60;94.20;;;;;;5093136;28;20201;-61
2021/04/09 01:38:24;;;;;;;8.23;4.33;;;2.60;94.20;;;;;;5092715;28;20680;-59
2021/04/09 01:40:53;;;;;;;5.50;3.93;;;2.50;94.20;;;;;;5092711;28;20751;-60
2021/04/09 01:43:21;;;;;;;7.13;4.27;;;2.50;94.40;;;;;;5092896;28;20223;-59
2021/04/09 01:45:49;;;;;;;6.93;4.57;;;2.40;94.40;;;;;;5092340;28;20252;-60
2021/04/09 01:48:17;;;;;;;6.37;4.00;;;2.50;94.30;;;;;;5092757;28;20299;-60
2021/04/09 01:50:45;;;;;;;7.53;4.50;;;2.60;94.20;;;;;;5092627;28;20220;-61
2021/04/09 01:53:13;;;;;;;6.73;4.50;;;2.70;94.10;;;;;;5092591;28;20595;-60
2021/04/09 01:55:43;;;;;;;7.90;4.43;;;2.80;93.90;;;;;;5092421;28;20234;-60
2021/04/09 01:58:11;;;;;;;8.20;4.73;;;2.80;93.70;;;;;;5092285;28;20215;-61
2021/04/09 02:00:38;;;;;;;8.57;4.50;;;2.80;93.50;;;;;;5092373;28;20223;-63
2021/04/09 02:03:06;;;;;;;5.87;4.67;;;2.80;93.60;;;;;;5092298;28;20224;-60
2021/04/09 02:05:34;;;;;;;6.90;4.50;;;2.80;93.60;;;;;;5092225;28;20250;-62
2021/04/09 02:08:03;;;;;;;6.80;4.47;;;2.80;93.60;;;;;;5092190;28;20478;-60
2021/04/09 02:10:30;;;;;;;6.20;4.90;;;2.80;93.70;;;;;;5092579;28;20577;-59
2021/04/09 02:12:56;;;;;;;7.83;4.30;;;2.60;93.70;;;;;;5092103;28;20201;-60
2021/04/09 02:15:24;;;;;;;7.97;4.80;;;2.80;93.70;;;;;;5092220;28;20231;-60
2021/04/09 02:17:51;;;;;;;5.87;4.67;;;2.70;93.80;;;;;;5092133;28;20208;-60
2021/04/09 02:20:19;;;;;;;7.53;4.43;;;2.70;94.00;;;;;;5092087;28;20227;-59
2021/04/09 02:22:47;;;;;;;5.87;4.13;;;2.60;94.00;;;;;;5091857;28;20224;-60
2021/04/09 02:25:16;;;;;;;5.60;4.30;;;2.60;94.20;;;;;;5091787;28;20215;-61
2021/04/09 02:27:44;;;;;;;6.07;4.57;;;2.50;94.40;;;;;;5091742;28;20209;-62
2021/04/09 02:30:12;;;;;;;6.73;4.70;;;2.40;94.60;;;;;;5091956;28;20291;-62
2021/04/09 02:32:39;;;;;;;5.80;4.50;;;2.30;94.70;;;;;;5091778;28;20739;-61
2021/04/09 02:35:07;;;;;;;8.80;4.30;;;2.20;94.90;;;;;;5091583;28;20215;-63
2021/04/09 02:37:34;;;;;;;5.90;4.33;;;2.20;95.00;;;;;;5091439;28;20687;-61
2021/04/09 02:40:06;;;;;;;6.70;4.30;;;2.10;95.10;;;;;;5091614;28;20257;-61
2021/04/09 02:42:34;;;;;;;6.13;4.60;;;2.00;95.20;;;;;;5091808;28;20235;-60
2021/04/09 02:45:00;;;;;;;6.10;4.70;;;1.80;95.60;;;;;;5091990;28;20200;-60
2021/04/09 02:47:29;;;;;;;7.30;4.93;;;1.80;95.80;;;;;;5091931;28;20204;-59
2021/04/09 02:50:01;;;;;;;8.13;5.20;;;1.70;96.10;;;;;;5091390;28;20672;-61
2021/04/09 02:52:31;;;;;;;7.43;4.73;;;1.70;96.20;;;;;;5091396;28;20239;-59
2021/04/09 02:55:01;;;;;;;7.63;4.90;;;1.70;96.20;;;;;;5091478;28;20200;-60
2021/04/09 02:57:29;;;;;;;8.60;4.77;;;1.70;96.30;;;;;;5091567;28;20204;-61
2021/04/09 02:59:59;;;;;;;6.73;4.33;;;1.70;96.30;;;;;;5091578;28;20619;-60
2021/04/09 03:02:26;;;;;;;7.10;5.27;;;1.70;96.30;;;;;;5091623;28;20269;-61
2021/04/09 03:04:53;;;;;;;8.17;5.50;;;1.80;96.30;;;;;;5091079;28;20567;-60
2021/04/09 03:07:20;;;;;;;9.53;6.57;;;1.70;96.70;;;;;;5091467;28;20217;-60
2021/04/09 03:09:46;;;;;;;9.77;5.67;;;1.70;96.60;;;;;;5091190;28;20205;-61
2021/04/09 03:12:14;;;;;;;9.20;5.80;;;1.60;96.70;;;;;;5091243;28;20224;-61
2021/04/09 03:14:41;;;;;;;6.63;5.33;;;1.60;96.80;;;;;;5091147;28;20242;-60
2021/04/09 03:17:12;;;;;;;9.37;5.90;;;1.60;96.80;;;;;;5091551;28;20269;-61
2021/04/09 03:19:39;;;;;;;9.97;5.73;;;1.60;96.80;;;;;;5090880;28;20683;-61
2021/04/09 03:22:09;;;;;;;6.93;5.10;;;1.60;96.80;;;;;;5091331;28;20277;-60
2021/04/09 03:24:35;;;;;;;9.87;5.40;;;1.60;96.80;;;;;;5090834;28;20227;-61
2021/04/09 03:27:02;;;;;;;8.57;5.10;;;1.60;96.90;;;;;;5091228;28;20722;-60
2021/04/09 03:29:28;;;;;;;8.30;5.17;;;1.60;97.00;;;;;;5090806;28;20200;-60
2021/04/09 03:31:54;;;;;;;7.20;4.97;;;1.60;96.90;;;;;;5090572;28;20229;-61
2021/04/09 03:34:21;;;;;;;7.93;5.20;;;1.60;96.90;;;;;;5090504;28;20623;-60
2021/04/09 03:36:48;;;;;;;7.10;5.30;;;1.60;96.90;;;;;;5090980;28;20204;-60
2021/04/09 03:39:14;;;;;;;7.83;4.40;;;1.60;96.80;;;;;;5090865;28;20595;-60
2021/04/09 03:41:40;;;;;;;11.33;5.57;;;1.60;96.90;;;;;;5090747;28;20223;-61
2021/04/09 03:44:06;;;;;;;8.40;5.67;;;1.60;96.80;;;;;;5090516;28;20727;-61
2021/04/09 03:46:32;;;;;;;10.23;5.07;;;1.60;96.80;;;;;;5090694;28;20204;-60
2021/04/09 03:48:59;;;;;;;7.73;5.20;;;1.70;96.70;;;;;;5094319;28;20211;-60
2021/04/09 03:51:26;;;;;;;7.07;4.90;;;1.70;96.70;;;;;;5094857;28;20224;-60
2021/04/09 03:53:52;;;;;;;7.53;5.03;;;1.70;96.60;;;;;;5095002;28;20207;-60
2021/04/09 03:56:18;;;;;;;8.03;5.07;;;1.70;96.70;;;;;;5095040;28;20200;-60
2021/04/09 03:58:44;;;;;;;5.83;4.87;;;1.60;96.70;;;;;;5094780;28;20200;-60
2021/04/09 04:01:12;;;;;;;11.27;5.53;;;1.60;96.70;;;;;;5094776;28;20716;-60
2021/04/09 04:03:38;;;;;;;7.27;4.90;;;1.60;96.80;;;;;;5094911;28;20224;-60
2021/04/09 04:06:04;;;;;;;7.77;4.87;;;1.50;96.90;;;;;;5095161;28;20733;-60
2021/04/09 04:08:31;;;;;;;8.27;5.70;;;1.50;97.10;;;;;;5094874;28;20234;-60
2021/04/09 04:10:57;;;;;;;6.87;5.20;;;1.50;97.10;;;;;;5094690;28;20711;-60
2021/04/09 04:13:24;;;;;;;6.60;5.07;;;1.50;97.10;;;;;;5094418;28;20200;-60
2021/04/09 04:15:50;;;;;;;8.73;5.23;;;1.50;97.30;;;;;;5094612;28;20208;-60
2021/04/09 04:18:16;;;;;;;9.97;5.70;;;1.40;97.30;;;;;;5094605;28;20211;-59
2021/04/09 04:20:42;;;;;;;7.70;5.30;;;1.40;97.50;;;;;;5094604;28;20582;-59
2021/04/09 04:23:08;;;;;;;8.33;5.17;;;1.40;97.90;;;;;;5094510;28;20220;-59
2021/04/09 04:25:35;;;;;;;9.13;5.27;;;1.40;97.60;;;;;;5094247;28;20621;-60
2021/04/09 04:28:02;;;;;;;8.30;5.70;;;1.40;97.50;;;;;;5094001;28;20215;-61
2021/04/09 04:30:28;;;;;;;10.97;5.37;;;1.50;97.50;;;;;;5094085;28;20204;-59
2021/04/09 04:32:54;;;;;;;9.87;5.30;;;1.50;97.40;;;;;;5094005;28;20622;-59
2021/04/09 04:35:20;;;;;;;9.80;5.30;;;1.50;97.40;;;;;;5094182;28;20238;-60
2021/04/09 04:37:46;;;;;;;7.50;5.47;;;1.50;97.40;;;;;;5094243;28;20211;-61
2021/04/09 04:40:13;;;;;;;25.30;16.40;;;1.50;97.50;;;;;;5094198;28;20204;-60
2021/04/09 04:42:41;;;;;;;9.47;6.83;;;1.30;97.70;;;;;;5093727;28;20228;-61
2021/04/09 04:45:08;;;;;;;8.37;6.37;;;1.20;97.90;;;;;;5093378;28;20295;-60
2021/04/09 04:47:34;;;;;;;8.07;5.50;;;1.20;98.00;;;;;;5092971;28;20246;-60
2021/04/09 04:50:01;;;;;;;9.03;5.60;;;1.20;98.10;;;;;;5093953;28;20579;-60
2021/04/09 04:52:27;;;;;;;9.73;6.00;;;1.20;98.30;;;;;;5093766;28;20228;-60
2021/04/09 04:54:53;;;;;;;9.37;6.23;;;1.10;98.40;;;;;;5093636;28;20200;-60
2021/04/09 04:57:19;;;;;;;10.73;5.63;;;1.10;98.60;;;;;;5093620;28;20273;-60
2021/04/09 04:59:46;;;;;;;7.17;4.97;;;1.10;98.80;;;;;;5092790;28;20290;-59
2021/04/09 05:02:12;;;;;;;9.33;6.00;;;1.10;98.70;;;;;;5093513;28;20242;-60
2021/04/09 05:04:38;;;;;;;12.93;8.70;;;1.10;98.90;;;;;;5093431;28;20224;-59
2021/04/09 05:07:05;;;;;;;17.83;10.53;;;1.30;98.80;;;;;;5093366;28;20672;-60
2021/04/09 05:09:31;;;;;;;13.40;7.50;;;1.40;98.60;;;;;;5093233;28;20208;-60
2021/04/09 05:11:57;;;;;;;10.63;6.50;;;1.50;98.40;;;;;;5093232;28;20295;-60
2021/04/09 05:14:23;;;;;;;8.93;5.33;;;1.60;98.20;;;;;;5093210;28;20203;-59
2021/04/09 05:16:50;;;;;;;9.23;6.67;;;1.80;97.90;;;;;;5093373;28;20204;-59
2021/04/09 05:19:16;;;;;;;11.83;7.47;;;2.00;97.60;;;;;;5093052;28;20668;-60
2021/04/09 05:21:42;;;;;;;13.17;7.10;;;2.10;97.30;;;;;;5093220;28;20220;-60
2021/04/09 05:24:09;;;;;;;9.30;5.40;;;2.20;97.00;;;;;;5093116;28;20215;-60
2021/04/09 05:26:35;;;;;;;8.87;4.60;;;2.10;97.00;;;;;;5093217;28;20278;-60
2021/04/09 05:29:02;;;;;;;9.00;4.93;;;2.10;97.20;;;;;;5093246;28;20213;-59
2021/04/09 05:31:28;;;;;;;9.17;5.30;;;2.00;97.40;;;;;;5093427;28;20251;-60
2021/04/09 05:33:55;;;;;;;10.63;6.00;;;1.90;97.60;;;;;;5093083;28;20204;-59
2021/04/09 05:36:21;;;;;;;9.70;6.13;;;2.00;97.60;;;;;;5093123;28;20208;-59
2021/04/09 05:38:47;;;;;;;10.60;5.40;;;2.10;97.60;;;;;;5092910;28;20558;-59
2021/04/09 05:41:13;;;;;;;10.27;5.60;;;2.40;97.10;;;;;;5093371;28;20240;-59
2021/04/09 05:43:39;;;;;;;10.03;6.00;;;2.70;97.00;;;;;;5092793;28;20231;-60
2021/04/09 05:46:06;;;;;;;14.27;8.00;;;4.00;95.70;;;;;;5092918;28;20234;-59
2021/04/09 05:48:32;;;;;;;13.10;6.63;;;5.50;93.10;;;;;;5092741;28;20208;-59
2021/04/09 05:50:59;;;;;;;12.77;6.83;;;6.50;90.60;;;;;;5092703;28;20224;-60
2021/04/09 05:53:25;;;;;;;10.23;5.57;;;7.40;87.80;;;;;;5092439;28;20203;-59
2021/04/09 05:55:52;;;;;;;11.40;6.03;;;8.30;83.70;;;;;;5092261;28;20209;-60
2021/04/09 05:58:18;;;;;;;7.50;5.17;;;9.10;79.70;;;;;;5092394;28;20204;-60
2021/04/09 06:00:44;;;;;;;10.27;6.03;;;9.80;76.30;;;;;;5092573;28;20281;-60
2021/04/09 06:03:10;;;;;;;13.83;8.17;;;10.30;72.50;;;;;;5092582;28;20243;-58
2021/04/09 06:05:36;;;;;;;14.07;6.07;;;10.60;72.00;;;;;;5092470;28;20272;-61
2021/04/09 06:08:06;;;;;;;10.77;5.83;;;10.70;70.30;;;;;;5092456;28;20278;-60
2021/04/09 06:10:33;;;;;;;12.37;5.63;;;10.80;70.00;;;;;;5091707;28;20215;-61
2021/04/09 06:12:59;;;;;;;7.93;5.47;;;11.20;68.80;;;;;;5091886;28;20211;-60
2021/04/09 06:15:26;;;;;;;6.63;5.27;;;11.80;66.20;;;;;;5092241;28;20251;-59
2021/04/09 06:17:52;;;;;;;7.97;5.80;;;12.60;64.50;;;;;;5091996;28;20583;-61
2021/04/09 06:20:18;;;;;;;8.73;5.40;;;13.50;62.00;;;;;;5092167;28;20211;-61
2021/04/09 06:22:46;;;;;;;12.13;10.63;;;14.10;59.50;;;;;;5091817;28;20927;-60
2021/04/09 06:25:15;;;;;;;14.03;7.40;;;14.20;58.10;;;;;;5091805;28;20711;-61
2021/04/09 06:27:41;;;;;;;9.60;6.43;;;13.90;58.70;;;;;;5092141;28;20211;-60
2021/04/09 06:30:09;;;;;;;10.87;6.93;;;14.20;58.00;;;;;;5092053;28;20208;-60
2021/04/09 06:32:35;;;;;;;9.57;7.27;;;15.00;57.00;;;;;;5092093;28;20228;-61
2021/04/09 06:35:01;;;;;;;8.73;7.13;;;15.80;55.60;;;;;;5092110;28;20211;-60
2021/04/09 06:37:27;;;;;;;8.13;5.37;;;16.50;54.10;;;;;;5091908;28;20253;-60
2021/04/09 06:39:53;;;;;;;7.57;5.10;;;16.90;52.60;;;;;;5092016;28;20212;-58
2021/04/09 06:42:21;;;;;;;9.10;5.77;;;17.20;52.40;;;;;;5091883;28;20289;-59
2021/04/09 06:44:48;;;;;;;10.73;6.73;;;17.70;51.70;;;;;;5091637;28;20228;-60
2021/04/09 06:47:16;;;;;;;6.47;4.93;;;18.20;50.20;;;;;;5091957;28;20629;-60
2021/04/09 06:49:42;;;;;;;11.17;5.73;;;18.70;49.00;;;;;;5092364;28;20204;-61
2021/04/09 06:52:11;;;;;;;10.30;8.57;;;19.20;48.70;;;;;;5091839;28;20604;-61
2021/04/09 06:54:37;;;;;;;7.28;4.93;;;19.60;46.50;;;;;;5091529;28;20211;-61
2021/04/09 06:57:07;;;;;;;9.93;6.35;;;19.80;46.00;;;;;;5091554;28;20208;-60
2021/04/09 06:59:34;;;;;;;10.23;7.15;;;19.80;45.20;;;;;;5091455;28;20230;-60
2021/04/09 07:02:02;;;;;;;8.27;5.90;;;19.60;44.70;;;;;;5091389;28;20243;-59
2021/04/09 07:04:28;;;;;;;8.13;5.10;;;19.20;45.00;;;;;;5090941;28;20612;-60
2021/04/09 07:06:54;;;;;;;7.25;4.90;;;18.90;45.50;;;;;;5091440;28;20241;-60
2021/04/09 07:09:21;;;;;;;6.20;4.30;;;18.90;45.50;;;;;;5091308;28;20209;-60
2021/04/09 07:11:51;;;;;;;5.35;3.95;;;19.00;45.10;;;;;;5091258;28;20296;-62
2021/04/09 07:14:18;;;;;;;7.68;4.53;;;19.20;44.90;;;;;;5091175;28;20204;-60
2021/04/09 07:17:03;;;;;;;7.28;4.70;;;19.40;45.30;;;;;;5091224;28;20208;-60
2021/04/09 07:19:34;;;;;;;6.30;3.97;;;19.50;45.00;;;;;;5091233;28;20303;-59
2021/04/09 07:22:02;;;;;;;5.22;3.83;;;19.70;44.30;;;;;;5090639;28;20953;-61
2021/04/09 07:24:28;;;;;;;6.05;4.00;;;19.80;43.80;;;;;;5090977;28;20227;-60
2021/04/09 07:26:55;;;;;;;7.10;3.83;;;20.00;43.50;;;;;;5091294;28;20208;-60
2021/04/09 07:29:39;;;;;;;10.48;4.07;;;20.30;42.60;;;;;;5091247;28;20204;-59
2021/04/09 07:32:28;;;;;;;5.60;4.35;;;20.00;42.90;;;;;;5091172;28;20224;-61
2021/04/09 07:34:58;;;;;;;7.07;4.28;;;20.00;43.70;;;;;;5090969;28;20253;-60
2021/04/09 07:37:26;;;;;;;5.93;3.50;;;20.60;42.30;;;;;;5091144;28;20250;-62
2021/04/09 07:39:58;;;;;;;6.80;3.28;;;21.00;41.00;;;;;;5090748;28;20423;-60
2021/04/09 07:42:32;;;;;;;6.70;3.70;;;21.40;40.60;;;;;;5090847;28;20270;-61
2021/04/09 07:45:00;;;;;;;5.65;4.00;;;21.90;40.00;;;;;;5090718;28;20230;-59
2021/04/09 07:47:27;;;;;;;7.20;3.83;;;22.10;39.50;;;;;;5090702;28;20257;-60
2021/04/09 07:50:06;;;;;;;6.57;3.95;;;22.50;38.90;;;;;;5090689;28;20211;-61
2021/04/09 07:52:41;;;;;;;9.23;3.85;;;22.90;38.40;;;;;;5090640;28;20235;-60
2021/04/09 07:55:22;;;;;;;5.72;3.15;;;23.20;37.50;;;;;;5090873;28;20200;-60
2021/04/09 07:57:49;;;;;;;7.32;3.50;;;23.20;36.80;;;;;;5090927;28;20204;-61
2021/04/09 08:00:22;;;;;;;4.68;2.92;;;23.10;36.60;;;;;;5090853;28;20717;-60
2021/04/09 08:02:50;;;;;;;4.80;2.90;;;23.30;36.20;;;;;;5090423;28;20228;-60
2021/04/09 08:05:19;;;;;;;5.00;3.05;;;23.40;35.80;;;;;;5090514;28;20762;-60
2021/04/09 08:07:45;;;;;;;4.20;2.80;;;23.60;35.60;;;;;;5090836;28;20208;-60
2021/04/09 08:10:13;;;;;;;4.22;2.80;;;23.90;34.80;;;;;;5091068;28;20212;-58
2021/04/09 08:12:40;;;;;;;3.72;2.70;;;23.70;34.60;;;;;;5090745;28;20231;-59
2021/04/09 08:15:15;;;;;;;6.28;2.90;;;23.00;35.00;;;;;;5090705;28;20207;-58
2021/04/09 08:17:41;;;;;;;3.67;2.45;;;22.20;35.30;;;;;;5090645;28;20208;-58
2021/04/09 08:20:13;;;;;;;5.18;2.75;;;21.40;36.30;;;;;;5090930;28;20213;-59
2021/04/09 08:22:41;;;;;;;8.48;2.90;;;20.70;36.90;;;;;;5090748;28;20577;-58
2021/04/09 08:25:08;;;;;;;7.88;2.92;;;20.10;38.00;;;;;;5090444;28;20726;-57
2021/04/09 08:27:36;;;;;;;10.68;3.63;;;19.60;39.40;;;;;;5090702;28;20215;-57
2021/04/09 08:30:04;;;;;;;7.05;3.40;;;19.10;40.60;;;;;;5090260;28;20253;-60
2021/04/09 08:32:31;;;;;;;6.75;3.50;;;18.50;41.10;;;;;;5090574;28;20277;-60
2021/04/09 08:34:58;;;;;;;4.10;2.80;;;18.10;40.80;;;;;;5092033;28;20239;-58
2021/04/09 08:37:24;;;;;;;4.40;2.30;;;17.70;39.50;;;;;;5094509;28;20219;-55
2021/04/09 08:39:52;;;;;;;5.63;2.53;;;17.60;38.20;;;;;;5093976;28;20208;-56
2021/04/09 08:42:18;;;;;;;4.33;3.23;;;17.50;37.30;;;;;;5094013;28;20360;-56
2021/04/09 08:44:45;;;;;;;2.60;2.30;;;17.40;37.60;;;;;;5093851;28;20224;-56
2021/04/09 08:47:15;;;;;;;4.73;2.53;;;17.40;37.10;;;;;;5094042;28;20618;-56
2021/04/09 08:49:42;;;;;;;4.70;2.50;;;17.40;37.50;;;;;;5093976;28;20207;-57
2021/04/09 08:52:09;;;;;;;5.00;2.40;;;17.50;37.60;;;;;;5093870;28;20224;-56
2021/04/09 08:54:47;;;;;;;5.87;2.27;;;17.60;37.30;;;;;;5093909;28;20294;-56
2021/04/09 08:57:26;;;;;;;6.03;2.23;;;17.80;37.60;;;;;;5093689;28;20215;-59
2021/04/09 09:00:07;;;;;;;2.50;2.13;;;17.70;37.70;;;;;;5093860;28;20204;-56
2021/04/09 09:02:44;;;;;;;3.37;2.10;;;17.70;37.80;;;;;;5094146;28;20247;-56
2021/04/09 09:05:13;;;;;;;5.83;2.57;;;17.80;37.70;;;;;;5093574;28;20227;-56
2021/04/09 09:08:06;;;;;;;3.70;2.30;;;18.00;37.70;;;;;;5093451;28;20204;-56
2021/04/09 09:10:57;;;;;;;5.18;2.53;;;17.90;37.20;;;;;;5093503;28;20565;-56
2021/04/09 09:13:29;;;;;;;3.83;2.40;;;18.00;37.50;;;;;;5093665;28;20208;-56
2021/04/09 09:16:17;;;;;;;4.37;2.83;;;18.10;37.40;;;;;;5093742;28;20236;-57
2021/04/09 09:18:48;;;;;;;9.00;6.70;;;18.20;36.80;;;;;;5093591;28;20290;-57
2021/04/09 09:21:36;;;;;;;6.47;2.60;;;18.30;36.80;;;;;;5093431;28;20239;-57
2021/04/09 09:24:20;;;;;;;5.25;2.70;;;18.30;36.50;;;;;;5089979;28;20224;-57
2021/04/09 09:26:47;;;;;;;3.63;2.70;;;18.20;36.90;;;;;;5093554;28;20282;-55
2021/04/09 09:29:16;;;;;;;6.43;4.93;;;18.00;37.20;;;;;;5093374;28;20200;-56
2021/04/09 09:31:54;;;;;;;5.57;2.50;;;17.90;37.20;;;;;;5093271;28;20224;-59
2021/04/09 09:34:45;;;;;;;3.27;2.33;;;17.80;37.00;;;;;;5092923;28;20231;-58
2021/04/09 09:37:14;;;;;;;4.67;2.30;;;17.70;37.50;;;;;;5093136;28;20208;-58
2021/04/09 09:39:43;;;;;;;2.97;2.33;;;17.60;37.60;;;;;;5093369;28;20208;-59
2021/04/09 09:42:12;;;;;;;3.47;2.50;;;17.70;37.70;;;;;;5093020;28;20224;-60
2021/04/09 09:44:47;;;;;;;5.10;2.50;;;17.90;37.90;;;;;;5092951;28;20227;-60
2021/04/09 09:47:26;;;;;;;4.67;2.67;;;18.00;37.40;;;;;;5092606;28;20667;-59
2021/04/09 09:50:21;;;;;;;5.87;2.77;;;18.10;37.80;;;;;;5092794;28;20266;-59
2021/04/09 09:52:49;;;;;;;5.32;2.80;;;18.40;37.60;;;;;;5092598;28;20277;-61
2021/04/09 09:55:19;;;;;;;3.30;2.30;;;18.60;37.60;;;;;;5092547;28;20211;-59
2021/04/09 09:57:48;;;;;;;7.93;2.77;;;18.60;37.60;;;;;;5092989;28;20295;-59
2021/04/09 10:00:25;;;;;;;4.82;2.70;;;18.80;37.80;;;;;;5092765;28;20565;-60
2021/04/09 10:03:07;;;;;;;5.28;2.78;;;18.90;37.90;;;;;;5092457;28;20242;-59
2021/04/09 10:05:34;;;;;;;6.63;3.17;;;19.00;37.50;;;;;;5092235;28;20574;-60
2021/04/09 10:08:01;;;;;;;6.63;2.78;;;19.00;38.00;;;;;;5092290;28;20246;-59
2021/04/09 10:10:37;;;;;;;4.03;2.30;;;18.90;37.40;;;;;;5092225;28;20212;-58
2021/04/09 10:13:17;;;;;;;5.95;2.90;;;18.90;37.50;;;;;;5092458;28;20208;-60
2021/04/09 10:15:44;;;;;;;4.53;2.40;;;18.90;37.50;;;;;;5091970;28;20204;-60
2021/04/09 10:18:10;;;;;;;4.32;2.78;;;18.80;37.70;;;;;;5092515;28;20656;-59
2021/04/09 10:20:37;;;;;;;4.32;2.53;;;18.90;37.60;;;;;;5091958;28;20212;-59
2021/04/09 10:23:04;;;;;;;3.60;2.30;;;18.90;37.40;;;;;;5092068;28;20341;-60
2021/04/09 10:25:33;;;;;;;3.13;2.53;;;18.90;37.70;;;;;;5092367;28;20206;-59
2021/04/09 10:27:59;;;;;;;4.07;2.80;;;19.10;38.00;;;;;;5088715;28;20515;-61
2021/04/09 10:30:27;;;;;;;5.70;2.70;;;19.30;36.90;;;;;;5091483;28;20212;-61
2021/04/09 10:32:54;;;;;;;7.03;2.55;;;19.50;36.90;;;;;;5091975;28;20358;-61
2021/04/09 10:35:22;;;;;;;7.13;2.78;;;19.80;36.60;;;;;;5091860;28;20660;-61
2021/04/09 10:37:48;;;;;;;5.63;2.33;;;20.10;36.10;;;;;;5091782;28;20208;-61
2021/04/09 10:40:14;;;;;;;4.47;2.50;;;20.10;35.80;;;;;;5091660;28;20208;-61
2021/04/09 10:42:41;;;;;;;7.15;2.53;;;20.10;35.50;;;;;;5091873;28;20224;-61
2021/04/09 10:45:19;;;;;;;4.38;2.60;;;20.40;35.50;;;;;;5091361;28;20228;-58
2021/04/09 10:47:45;;;;;;;4.55;2.38;;;20.40;35.30;;;;;;5091344;28;20208;-57
2021/04/09 10:50:13;;;;;;;5.93;2.90;;;20.50;35.60;;;;;;5091645;28;20204;-59
2021/04/09 10:52:39;;;;;;;4.50;2.53;;;20.50;34.90;;;;;;5091770;28;20227;-58
2021/04/09 10:55:07;;;;;;;5.60;3.00;;;20.70;35.20;;;;;;5091967;28;20207;-59
2021/04/09 10:57:35;;;;;;;5.55;2.83;;;20.70;35.90;;;;;;5090958;28;20626;-58
2021/04/09 11:00:03;;;;;;;7.28;2.78;;;20.90;36.00;;;;;;5090921;28;20204;-59
2021/04/09 11:02:30;;;;;;;3.80;2.47;;;21.10;35.20;;;;;;5091234;28;20235;-59
2021/04/09 11:04:58;;;;;;;4.38;2.55;;;21.30;35.40;;;;;;5091336;28;20289;-58
2021/04/09 11:07:41;;;;;;;4.70;2.60;;;21.40;35.10;;;;;;5091226;28;20672;-58
2021/04/09 11:10:08;;;;;;;4.72;2.75;;;21.50;34.60;;;;;;5090976;28;20689;-59
2021/04/09 11:12:34;;;;;;;3.97;2.80;;;21.60;35.70;;;;;;5090824;28;20719;-59
2021/04/09 11:15:06;;;;;;;8.38;2.70;;;21.70;35.30;;;;;;5091214;28;20207;-59
2021/04/09 11:17:33;;;;;;;10.10;5.03;;;21.50;35.00;;;;;;5091097;28;20215;-62
2021/04/09 11:20:02;;;;;;;4.03;2.30;;;21.60;34.90;;;;;;5090605;28;20216;-61
2021/04/09 11:22:30;;;;;;;5.32;2.30;;;21.50;34.40;;;;;;5090876;28;20232;-61
2021/04/09 11:24:59;;;;;;;4.57;2.10;;;21.40;34.90;;;;;;5090957;28;20281;-62
2021/04/09 11:27:30;;;;;;;4.10;1.98;;;21.10;35.40;;;;;;5091043;28;20215;-60
2021/04/09 11:30:08;;;;;;;4.93;2.00;;;21.10;35.20;;;;;;5090552;28;20239;-59
2021/04/09 11:32:40;;;;;;;5.10;2.22;;;20.80;35.30;;;;;;5090828;28;20223;-61
2021/04/09 11:35:09;;;;;;;6.40;2.25;;;20.60;35.50;;;;;;5090712;28;20243;-60
2021/04/09 11:37:43;;;;;;;4.10;2.10;;;20.60;35.60;;;;;;5090617;28;20208;-60
2021/04/09 11:40:11;;;;;;;5.88;2.72;;;20.70;35.90;;;;;;5090814;28;20253;-60
2021/04/09 11:42:37;;;;;;;4.07;2.30;;;20.90;36.10;;;;;;5090560;28;20707;-60
2021/04/09 11:45:06;;;;;;;5.03;2.13;;;21.00;35.70;;;;;;5090889;28;20227;-58
2021/04/09 11:47:34;;;;;;;5.63;2.00;;;21.00;35.50;;;;;;5090793;28;20208;-61
2021/04/09 11:50:13;;;;;;;4.25;2.28;;;21.10;35.50;;;;;;5090609;28;20208;-60
2021/04/09 11:52:54;;;;;;;3.13;2.35;;;21.20;36.20;;;;;;5090342;28;20784;-59
2021/04/09 11:55:24;;;;;;;7.03;2.33;;;21.20;35.90;;;;;;5091288;28;20268;-60
2021/04/09 11:57:50;;;;;;;6.13;2.55;;;21.10;34.90;;;;;;5090753;28;20261;-63
2021/04/09 12:00:22;;;;;;;3.22;2.15;;;21.30;35.10;;;;;;5090761;28;20234;-60
2021/04/09 12:02:50;;;;;;;4.38;2.45;;;21.40;35.50;;;;;;5090320;28;20251;-59
2021/04/09 12:05:21;;;;;;;6.30;2.22;;;21.60;35.00;;;;;;5090296;28;20607;-60
2021/04/09 12:07:48;;;;;;;3.13;2.13;;;21.70;34.90;;;;;;5090216;28;20200;-60
2021/04/09 12:10:15;;;;;;;3.22;2.30;;;22.00;34.50;;;;;;5092632;28;20216;-60
2021/04/09 12:12:43;;;;;;;17.17;13.80;;;22.10;34.60;;;;;;5094400;28;20649;-60
2021/04/09 12:15:10;;;;;;;4.05;2.42;;;22.10;34.00;;;;;;5094079;28;20203;-60
2021/04/09 12:17:36;;;;;;;7.03;2.10;;;22.00;34.40;;;;;;5094314;28;20204;-60
2021/04/09 12:20:07;;;;;;;7.47;2.53;;;22.20;34.50;;;;;;5094559;28;20204;-60
2021/04/09 12:22:34;;;;;;;4.65;2.58;;;22.40;33.70;;;;;;5094257;28;20224;-60
2021/04/09 12:25:00;;;;;;;7.15;2.95;;;22.50;33.60;;;;;;5094237;28;20256;-61
2021/04/09 12:27:26;;;;;;;3.42;2.45;;;22.50;34.30;;;;;;5094122;28;20648;-61
2021/04/09 12:29:53;;;;;;;4.60;2.47;;;22.50;34.10;;;;;;5094427;28;20208;-61
2021/04/09 12:32:20;;;;;;;4.38;2.17;;;22.30;34.20;;;;;;5093929;28;20228;-61
2021/04/09 12:34:46;;;;;;;5.72;2.70;;;22.10;34.40;;;;;;5093907;28;20207;-60
2021/04/09 12:37:12;;;;;;;4.88;2.50;;;22.00;34.50;;;;;;5078680;28;20657;-60
2021/04/09 12:39:38;;;;;;;7.07;2.33;;;21.90;34.50;;;;;;5073476;28;20205;-60
2021/04/09 12:42:05;;;;;;;3.08;2.13;;;21.80;34.40;;;;;;5073655;28;20612;-60
2021/04/09 12:44:31;;;;;;;3.30;2.40;;;21.80;34.70;;;;;;5073759;28;20233;-60
2021/04/09 12:46:58;;;;;;;6.05;2.53;;;21.90;34.70;;;;;;5073798;28;20742;-59
2021/04/09 12:49:24;;;;;;;4.20;2.53;;;22.00;34.70;;;;;;5073752;28;20205;-59
2021/04/09 12:51:51;;;;;;;5.47;2.95;;;22.10;34.70;;;;;;5073400;28;20324;-60
2021/04/09 12:54:18;;;;;;;4.63;2.20;;;22.20;35.10;;;;;;5073561;28;20204;-60
2021/04/09 12:56:44;;;;;;;5.10;2.20;;;22.20;35.10;;;;;;5073509;28;20208;-61
2021/04/09 12:59:10;;;;;;;4.97;2.35;;;22.20;34.70;;;;;;5073441;28;20205;-60